createdAt,value
2022-07-29T00:02:00.136Z,100921.77
2022-07-29T00:04:32.866Z,100918.73
2022-07-29T00:07:04.858Z,100919.73
2022-07-29T00:09:41.999Z,100921.22
2022-07-29T00:12:26.890Z,100920.30
2022-07-29T00:14:59.393Z,100922.61
2022-07-29T00:17:31.255Z,100919.42
2022-07-29T00:20:02.986Z,100923.26
2022-07-29T00:22:35.052Z,100923.29
2022-07-29T00:25:08.007Z,100927.19
2022-07-29T00:27:40.306Z,100928.64
2022-07-29T00:30:12.912Z,100928.23
2022-07-29T00:32:43.127Z,100931.98
2022-07-29T00:35:33.512Z,100931.27
2022-07-29T00:38:05.360Z,100923.96
2022-07-29T00:40:37.484Z,100925.02
2022-07-29T00:43:16.486Z,100921.20
2022-07-29T00:45:48.430Z,100923.94
2022-07-29T00:48:20.160Z,100925.86
2022-07-29T00:50:52.664Z,100922.20
2022-07-29T00:53:25.890Z,100922.56
2022-07-29T00:55:59.809Z,100920.98
2022-07-29T00:58:31.688Z,100920.46
2022-07-29T01:01:03.397Z,100922.13
2022-07-29T01:03:35.245Z,100921.98
2022-07-29T01:06:08.089Z,100925.54
2022-07-29T01:08:38.810Z,100927.89
2022-07-29T01:11:10.657Z,100932.14
2022-07-29T01:13:43.017Z,100919.52
2022-07-29T01:16:23.206Z,100927.30
2022-07-29T01:19:02.797Z,100928.42
2022-07-29T01:21:52.912Z,100924.54
2022-07-29T01:25:04.444Z,100922.83
2022-07-29T01:27:49.584Z,100919.38
2022-07-29T01:30:23.167Z,100921.35
2022-07-29T01:33:00.861Z,100924.09
2022-07-29T01:35:41.204Z,100927.11
2022-07-29T01:38:19.500Z,100918.85
2022-07-29T01:40:54.935Z,100918.80
2022-07-29T01:43:34.968Z,100915.75
2022-07-29T01:46:11.391Z,100908.61
2022-07-29T01:48:47.861Z,100909.55
2022-07-29T01:51:27.299Z,100903.71
2022-07-29T01:54:07.052Z,100903.27
2022-07-29T01:56:41.122Z,100905.98
2022-07-29T01:59:13.769Z,100902.63
2022-07-29T02:01:47.821Z,100899.59
2022-07-29T02:04:26.619Z,100904.75
2022-07-29T02:07:06.098Z,100903.92
2022-07-29T02:09:41.524Z,100897.39
2022-07-29T02:12:15.726Z,100909.09
2022-07-29T02:14:51.246Z,100907.08
2022-07-29T02:17:28.465Z,100903.91
2022-07-29T02:20:05.316Z,100892.13
2022-07-29T02:22:40.075Z,100889.19
2022-07-29T02:25:14.498Z,100887.80
2022-07-29T02:27:49.113Z,100886.88
2022-07-29T02:30:23.790Z,100887.83
2022-07-29T02:32:57.459Z,100893.00
2022-07-29T02:35:34.853Z,100888.05
2022-07-29T02:38:24.820Z,100883.78
2022-07-29T02:40:59.283Z,100882.09
2022-07-29T02:43:32.634Z,100886.77
2022-07-29T02:46:12.778Z,100889.62
2022-07-29T02:49:04.809Z,100887.46
2022-07-29T02:51:45.245Z,100889.34
2022-07-29T02:54:24.703Z,100885.96
2022-07-29T02:57:00.892Z,100886.40
2022-07-29T02:59:36.685Z,100879.34
2022-07-29T03:02:09.492Z,100877.80
2022-07-29T03:04:44.616Z,100873.11
2022-07-29T03:07:20.211Z,100874.98
2022-07-29T03:09:53.384Z,100870.80
2022-07-29T03:12:25.956Z,100872.55
2022-07-29T03:14:59.698Z,100874.86
2022-07-29T03:17:32.694Z,100880.30
2022-07-29T03:20:05.780Z,100876.36
2022-07-29T03:22:44.805Z,100873.00
2022-07-29T03:25:18.837Z,100864.39
2022-07-29T03:27:52.466Z,100871.73
2022-07-29T03:30:24.545Z,100871.57
2022-07-29T03:32:56.700Z,100874.59
2022-07-29T03:35:32.576Z,100874.60
2022-07-29T03:38:04.791Z,100877.04
2022-07-29T03:40:40.306Z,100878.42
2022-07-29T03:43:15.448Z,100882.38
2022-07-29T03:45:52.227Z,100880.73
2022-07-29T03:48:26.406Z,100878.05
2022-07-29T03:50:58.982Z,100876.47
2022-07-29T03:53:31.254Z,100875.13
2022-07-29T03:56:06.353Z,100873.91
2022-07-29T03:58:39.800Z,100872.73
2022-07-29T04:01:10.056Z,100875.02
2022-07-29T04:03:42.602Z,100879.73
2022-07-29T04:06:14.689Z,100879.77
2022-07-29T04:08:46.484Z,100883.67
2022-07-29T04:11:18.488Z,100885.23
2022-07-29T04:13:51.273Z,100884.85
2022-07-29T04:16:23.295Z,100887.34
2022-07-29T04:18:55.198Z,100891.23
2022-07-29T04:21:27.138Z,100890.71
2022-07-29T04:23:58.999Z,100898.77
2022-07-29T04:26:30.770Z,100899.92
2022-07-29T04:29:02.523Z,100899.73
2022-07-29T04:31:34.422Z,100904.37
2022-07-29T04:34:06.279Z,100907.80
2022-07-29T04:36:38.448Z,100907.67
2022-07-29T04:39:11.024Z,100904.25
2022-07-29T04:41:43.697Z,100911.52
2022-07-29T04:44:16.147Z,100909.45
2022-07-29T04:46:49.323Z,100906.61
2022-07-29T04:49:21.323Z,100910.56
2022-07-29T04:51:53.584Z,100905.83
2022-07-29T04:54:25.506Z,100910.13
2022-07-29T04:56:57.741Z,100905.45
2022-07-29T04:59:29.912Z,100906.73
2022-07-29T05:02:01.710Z,100906.05
2022-07-29T05:04:33.899Z,100907.39
2022-07-29T05:07:05.686Z,100907.56
2022-07-29T05:09:37.411Z,100902.63
2022-07-29T05:12:11.931Z,100902.89
2022-07-29T05:14:44.845Z,100894.41
2022-07-29T05:17:16.672Z,100892.37
2022-07-29T05:19:48.353Z,100889.73
2022-07-29T05:22:20.733Z,100894.38
2022-07-29T05:24:52.707Z,100891.86
2022-07-29T05:27:24.994Z,100893.86
2022-07-29T05:29:57.540Z,100895.14
2022-07-29T05:32:29.413Z,100898.91
2022-07-29T05:35:01.334Z,100900.71
2022-07-29T05:37:33.183Z,100905.34
2022-07-29T05:40:05.458Z,100904.03
2022-07-29T05:42:36.770Z,100907.41
2022-07-29T05:45:13.016Z,100906.45
2022-07-29T05:47:44.790Z,100905.96
2022-07-29T05:50:16.529Z,100907.19
2022-07-29T05:52:48.352Z,100906.27
2022-07-29T05:55:21.743Z,100901.21
2022-07-29T05:57:55.393Z,100904.38
2022-07-29T06:00:27.306Z,100902.11
2022-07-29T06:03:01.325Z,100905.20
2022-07-29T06:05:33.122Z,100904.75
2022-07-29T06:08:06.771Z,100904.80
2022-07-29T06:10:39.627Z,100903.17
2022-07-29T06:13:11.426Z,100898.20
2022-07-29T06:15:44.141Z,100897.36
2022-07-29T06:18:15.547Z,100891.98
2022-07-29T06:20:47.339Z,100888.40
2022-07-29T06:23:19.263Z,100893.80
2022-07-29T06:25:51.137Z,100894.02
2022-07-29T06:28:22.923Z,100895.77
2022-07-29T06:30:55.032Z,100896.86
2022-07-29T06:33:26.840Z,100897.08
2022-07-29T06:35:58.789Z,100895.05
2022-07-29T06:38:34.234Z,100899.73
2022-07-29T06:41:16.875Z,100900.38
2022-07-29T06:43:51.809Z,100906.24
2022-07-29T06:46:26.923Z,100904.64
2022-07-29T06:48:58.805Z,100902.78
2022-07-29T06:51:30.564Z,100905.14
2022-07-29T06:54:03.747Z,100899.42
2022-07-29T06:56:40.339Z,100894.98
2022-07-29T06:59:14.167Z,100898.39
2022-07-29T07:01:47.046Z,100896.77
2022-07-29T07:04:19.092Z,100898.74
2022-07-29T07:06:51.048Z,100895.88
2022-07-29T07:09:22.930Z,100896.19
2022-07-29T07:11:54.676Z,100891.73
2022-07-29T07:14:28.200Z,100885.23
2022-07-29T07:17:01.445Z,100882.50
2022-07-29T07:19:33.466Z,100885.19
2022-07-29T07:22:05.320Z,100880.27
2022-07-29T07:24:37.309Z,100879.89
2022-07-29T07:27:09.192Z,100877.60
2022-07-29T07:29:44.213Z,100874.30
2022-07-29T07:32:18.203Z,100879.55
2022-07-29T07:34:50.243Z,100877.14
2022-07-29T07:37:22.149Z,100877.09
2022-07-29T07:39:54.104Z,100879.94
2022-07-29T07:42:26.185Z,100885.13
2022-07-29T07:45:13.131Z,100883.41
2022-07-29T07:47:46.595Z,100885.07
2022-07-29T07:50:19.519Z,100885.83
2022-07-29T07:52:53.892Z,100885.58
2022-07-29T07:55:25.907Z,100886.34
2022-07-29T07:57:58.148Z,100885.75
2022-07-29T08:00:29.928Z,100887.24
2022-07-29T08:03:01.737Z,100885.55
2022-07-29T08:05:33.591Z,100885.70
2022-07-29T08:08:06.850Z,100889.77
2022-07-29T08:10:57.932Z,100888.71
2022-07-29T08:13:31.445Z,100889.40
2022-07-29T08:16:12.478Z,100895.09
2022-07-29T08:18:47.321Z,100899.11
2022-07-29T08:21:19.898Z,100899.58
2022-07-29T08:24:00.764Z,100900.75
2022-07-29T08:26:34.863Z,100904.77
2022-07-29T08:29:06.529Z,100905.61
2022-07-29T08:31:38.407Z,100908.15
2022-07-29T08:34:10.252Z,100905.95
2022-07-29T08:36:42.165Z,100914.45
2022-07-29T08:39:13.934Z,100913.19
2022-07-29T08:41:56.910Z,100905.05
2022-07-29T08:44:31.169Z,100913.42
2022-07-29T08:47:03.687Z,100908.13
2022-07-29T08:49:39.180Z,100909.63
2022-07-29T08:52:13.736Z,100906.14
2022-07-29T08:54:48.266Z,100908.17
2022-07-29T08:57:21.619Z,100907.85
2022-07-29T08:59:54.810Z,100909.20
2022-07-29T09:02:30.601Z,100905.41
2022-07-29T09:05:03.969Z,100908.91
2022-07-29T09:07:36.372Z,100907.68
2022-07-29T09:10:11.074Z,100913.11
2022-07-29T09:12:43.202Z,100912.40
2022-07-29T09:15:15.484Z,100913.63
2022-07-29T09:17:49.326Z,100913.98
2022-07-29T09:20:24.152Z,100911.92
2022-07-29T09:22:56.214Z,100907.08
2022-07-29T09:25:38.718Z,100906.33
2022-07-29T09:28:12.020Z,100906.50
2022-07-29T09:30:54.184Z,100910.15
2022-07-29T09:33:32.945Z,100910.87
2022-07-29T09:36:08.209Z,100910.36
2022-07-29T09:38:40.096Z,100906.20
2022-07-29T09:41:11.904Z,100902.38
2022-07-29T09:43:55.143Z,100899.80
2022-07-29T09:46:27.438Z,100899.83
2022-07-29T09:49:12.389Z,100900.18
2022-07-29T09:51:45.271Z,100898.77
2022-07-29T09:54:26.776Z,100895.09
2022-07-29T09:56:58.795Z,100888.20
2022-07-29T09:59:30.619Z,100888.77
2022-07-29T10:02:02.928Z,100884.80
2022-07-29T10:04:45.381Z,100882.63
2022-07-29T10:07:17.246Z,100884.55
2022-07-29T10:09:57.020Z,100880.58
2022-07-29T10:12:28.771Z,100877.98
2022-07-29T10:15:00.766Z,100885.17
2022-07-29T10:17:32.770Z,100882.99
2022-07-29T10:20:09.846Z,100879.80
2022-07-29T10:22:53.517Z,100879.05
2022-07-29T10:25:26.698Z,100878.80
2022-07-29T10:27:59.300Z,100873.13
2022-07-29T10:30:29.572Z,100873.77
2022-07-29T10:33:20.373Z,100868.17
2022-07-29T10:36:17.657Z,100862.61
2022-07-29T10:38:56.773Z,100852.85
2022-07-29T10:41:47.660Z,100855.36
2022-07-29T10:47:23.751Z,100860.92
2022-07-29T10:50:04.499Z,100854.11
2022-07-29T10:52:59.762Z,100860.05
2022-07-29T10:55:43.796Z,100848.77
2022-07-29T10:58:18.994Z,100846.43
2022-07-29T11:00:52.273Z,100849.50
2022-07-29T11:03:57.914Z,100843.41
2022-07-29T11:07:04.059Z,100839.41
2022-07-29T11:09:38.272Z,100846.38
2022-07-29T11:12:52.204Z,100848.91
2022-07-29T11:15:25.261Z,100845.36
2022-07-29T11:21:26.807Z,100852.90
2022-07-29T11:24:28.894Z,100845.47
2022-07-29T11:27:19.897Z,100844.07
2022-07-29T11:29:58.564Z,100840.27
2022-07-29T11:32:40.578Z,100843.65
2022-07-29T11:35:19.161Z,100844.19
2022-07-29T11:38:28.806Z,100842.23
2022-07-29T11:41:25.989Z,100842.69
2022-07-29T11:44:00.817Z,100840.60
2022-07-29T11:46:51.173Z,100835.86
2022-07-29T11:49:32.024Z,100832.77
2022-07-29T11:52:05.776Z,100832.64
2022-07-29T11:54:58.291Z,100826.31
2022-07-29T11:57:36.216Z,100820.23
2022-07-29T12:00:14.453Z,100822.45
2022-07-29T12:02:48.665Z,100822.91
2022-07-29T12:05:36.013Z,100823.86
2022-07-29T12:08:14.720Z,100818.65
2022-07-29T12:10:47.405Z,100818.85
2022-07-29T12:13:22.219Z,100823.10
2022-07-29T12:15:59.958Z,100818.67
2022-07-29T12:18:32.203Z,100810.69
2022-07-29T12:21:05.034Z,100809.05
2022-07-29T12:23:37.070Z,100807.42
2022-07-29T12:26:10.997Z,100797.08
2022-07-29T12:28:54.751Z,100796.21
2022-07-29T12:31:42.976Z,100792.90
2022-07-29T12:34:17.917Z,100792.36
2022-07-29T12:36:50.368Z,100791.52
2022-07-29T12:39:22.494Z,100792.29
2022-07-29T12:41:54.334Z,100785.14
2022-07-29T12:44:52.151Z,100786.79
2022-07-29T12:47:24.864Z,100780.98
2022-07-29T12:50:12.165Z,100779.66
2022-07-29T12:52:43.998Z,100770.16
2022-07-29T12:55:16.081Z,100769.46
2022-07-29T12:57:53.249Z,100766.59
2022-07-29T13:00:27.292Z,100764.24
2022-07-29T13:03:01.725Z,100770.09
2022-07-29T13:05:49.670Z,100768.21
2022-07-29T13:08:24.081Z,100766.98
2022-07-29T13:10:55.864Z,100765.45
2022-07-29T13:13:28.247Z,100762.35
2022-07-29T13:16:09.614Z,100761.33
2022-07-29T13:18:42.368Z,100760.41
2022-07-29T13:21:18.965Z,100758.15
2022-07-29T13:23:51.008Z,100752.31
2022-07-29T13:26:22.749Z,100752.89
2022-07-29T13:28:55.921Z,100750.23
2022-07-29T13:31:28.665Z,100747.22
2022-07-29T13:34:00.456Z,100748.32
2022-07-29T13:36:32.186Z,100745.58
2022-07-29T13:39:04.219Z,100741.25
2022-07-29T13:41:36.012Z,100741.42
2022-07-29T13:44:08.982Z,100737.35
2022-07-29T13:46:40.722Z,100735.88
2022-07-29T13:49:13.215Z,100729.80
2022-07-29T13:51:45.221Z,100723.23
2022-07-29T13:54:17.224Z,100718.92
2022-07-29T13:56:49.792Z,100712.96
2022-07-29T13:59:22.419Z,100709.08
2022-07-29T14:01:55.479Z,100712.38
2022-07-29T14:04:27.763Z,100715.20
2022-07-29T14:06:59.871Z,100707.00
2022-07-29T14:09:41.103Z,100708.40
2022-07-29T14:12:14.144Z,100707.40
2022-07-29T14:14:44.323Z,100702.58
2022-07-29T14:17:19.243Z,100707.08
2022-07-29T14:19:50.992Z,100708.81
2022-07-29T14:22:25.422Z,100704.95
2022-07-29T14:24:57.389Z,100696.00
2022-07-29T14:27:37.783Z,100703.04
2022-07-29T14:30:13.780Z,100698.30
2022-07-29T14:32:46.538Z,100696.51
2022-07-29T14:35:18.622Z,100691.41
2022-07-29T14:37:50.394Z,100694.75
2022-07-29T14:40:22.159Z,100694.20
2022-07-29T14:42:53.922Z,100698.36
2022-07-29T14:45:25.641Z,100697.09
2022-07-29T14:47:58.299Z,100693.13
2022-07-29T14:50:35.515Z,100697.93
2022-07-29T14:53:07.504Z,100698.73
2022-07-29T14:55:40.451Z,100700.89
2022-07-29T14:58:16.250Z,100690.11
2022-07-29T15:00:49.329Z,100696.89
2022-07-29T15:03:23.906Z,100701.16
2022-07-29T15:05:56.666Z,100696.69
2022-07-29T15:08:29.038Z,100691.89
2022-07-29T15:11:01.831Z,100694.96
2022-07-29T15:13:33.845Z,100691.14
2022-07-29T15:16:06.768Z,100689.78
2022-07-29T15:18:39.261Z,100684.09
2022-07-29T15:21:11.027Z,100679.83
2022-07-29T15:23:42.650Z,100677.98
2022-07-29T15:26:14.465Z,100679.73
2022-07-29T15:28:46.264Z,100677.95
2022-07-29T15:31:19.928Z,100674.96
2022-07-29T15:33:56.968Z,100677.02
2022-07-29T15:36:56.619Z,100679.70
2022-07-29T15:39:23.265Z,100678.21
2022-07-29T15:41:55.921Z,100672.19
2022-07-29T15:44:28.334Z,100672.92
2022-07-29T15:47:09.291Z,100666.42
2022-07-29T15:49:47.164Z,100667.37
2022-07-29T15:52:25.087Z,100670.99
2022-07-29T15:55:00.361Z,100666.61
2022-07-29T15:57:32.271Z,100665.71
2022-07-29T16:00:04.349Z,100661.90
2022-07-29T16:02:40.465Z,100666.06
2022-07-29T16:05:13.385Z,100665.79
2022-07-29T16:07:45.434Z,100661.46
2022-07-29T16:10:17.349Z,100660.06
2022-07-29T16:12:49.196Z,100662.02
2022-07-29T16:15:21.037Z,100660.63
2022-07-29T16:17:53.080Z,100667.50
2022-07-29T16:20:25.472Z,100665.92
2022-07-29T16:22:58.658Z,100667.98
2022-07-29T16:25:57.410Z,100665.85
2022-07-29T16:28:22.913Z,100664.48
2022-07-29T16:30:54.706Z,100657.98
2022-07-29T16:33:28.377Z,100655.02
2022-07-29T16:36:21.572Z,100651.61
2022-07-29T16:38:53.423Z,100649.85
2022-07-29T16:41:25.136Z,100652.48
2022-07-29T16:43:56.917Z,100652.77
2022-07-29T16:46:29.091Z,100650.50
2022-07-29T16:49:02.501Z,100651.52
2022-07-29T16:51:34.827Z,100651.02
2022-07-29T16:54:08.697Z,100650.34
2022-07-29T16:56:40.674Z,100645.48
2022-07-29T16:59:14.795Z,100648.79
2022-07-29T17:01:45.101Z,100640.88
2022-07-29T17:04:17.053Z,100638.61
2022-07-29T17:06:49.625Z,100635.95
2022-07-29T17:09:21.689Z,100635.28
2022-07-29T17:11:55.077Z,100635.33
2022-07-29T17:14:29.412Z,100629.54
2022-07-29T17:17:03.326Z,100631.66
2022-07-29T17:19:37.305Z,100633.90
2022-07-29T17:22:15.472Z,100628.00
2022-07-29T17:24:50.825Z,100624.48
2022-07-29T17:27:22.643Z,100628.11
2022-07-29T17:29:54.439Z,100623.06
2022-07-29T17:32:26.401Z,100624.10
2022-07-29T17:34:59.123Z,100622.85
2022-07-29T17:37:31.082Z,100624.73
2022-07-29T17:40:02.979Z,100629.38
2022-07-29T17:42:34.774Z,100633.30
2022-07-29T17:45:07.572Z,100632.54
2022-07-29T17:47:39.449Z,100630.56
2022-07-29T17:50:11.545Z,100628.84
2022-07-29T17:52:43.336Z,100632.11
2022-07-29T17:55:15.079Z,100638.81
2022-07-29T17:57:46.782Z,100638.23
2022-07-29T18:00:22.849Z,100635.33
2022-07-29T18:02:54.698Z,100638.71
2022-07-29T18:05:26.681Z,100635.98
2022-07-29T18:07:59.051Z,100638.86
2022-07-29T18:10:31.385Z,100638.56
2022-07-29T18:13:02.833Z,100639.95
2022-07-29T18:15:34.826Z,100643.98
2022-07-29T18:18:06.785Z,100644.75
2022-07-29T18:20:39.035Z,100646.11
2022-07-29T18:23:11.483Z,100644.17
2022-07-29T18:25:43.497Z,100644.60
2022-07-29T18:28:15.264Z,100647.41
2022-07-29T18:30:47.457Z,100646.78
2022-07-29T18:33:22.369Z,100648.52
2022-07-29T18:36:06.075Z,100651.81
2022-07-29T18:38:44.010Z,100654.51
2022-07-29T18:41:16.055Z,100651.55
2022-07-29T18:43:47.914Z,100652.10
2022-07-29T18:46:20.093Z,100651.61
2022-07-29T18:48:53.637Z,100650.77
2022-07-29T18:51:27.514Z,100658.42
2022-07-29T18:53:59.257Z,100654.55
2022-07-29T18:56:30.967Z,100656.25
2022-07-29T18:59:03.180Z,100652.75
2022-07-29T19:01:35.063Z,100654.77
2022-07-29T19:04:07.443Z,100659.87
2022-07-29T19:06:40.839Z,100660.98
2022-07-29T19:09:12.970Z,100660.90
2022-07-29T19:11:44.808Z,100663.31
2022-07-29T19:14:16.464Z,100661.82
2022-07-29T19:16:48.407Z,100665.58
2022-07-29T19:19:20.123Z,100670.37
2022-07-29T19:21:51.873Z,100675.59
2022-07-29T19:24:24.035Z,100679.58
2022-07-29T19:26:56.396Z,100677.20
2022-07-29T19:29:29.206Z,100681.05
2022-07-29T19:32:02.179Z,100678.53
2022-07-29T19:34:34.398Z,100677.34
2022-07-29T19:37:06.705Z,100675.29
2022-07-29T19:39:39.662Z,100679.55
2022-07-29T19:42:10.175Z,100682.14
2022-07-29T19:44:42.186Z,100679.43
2022-07-29T19:47:17.402Z,100677.24
2022-07-29T19:49:49.504Z,100673.56
2022-07-29T19:52:21.594Z,100671.20
2022-07-29T19:54:53.745Z,100665.21
2022-07-29T19:57:25.531Z,100668.27
2022-07-29T19:59:56.457Z,100672.94
2022-07-29T20:02:28.532Z,100673.80
2022-07-29T20:05:00.443Z,100675.42
2022-07-29T20:07:32.722Z,100678.92
2022-07-29T20:10:05.092Z,100673.01
2022-07-29T20:12:38.512Z,100672.23
2022-07-29T20:15:16.269Z,100673.38
2022-07-29T20:17:48.743Z,100676.23
2022-07-29T20:20:22.276Z,100672.54
2022-07-29T20:22:54.197Z,100672.78
2022-07-29T20:25:26.170Z,100675.96
2022-07-29T20:27:57.947Z,100673.59
2022-07-29T20:30:30.139Z,100671.10
2022-07-29T20:33:02.609Z,100666.60
2022-07-29T20:35:33.459Z,100663.44
2022-07-29T20:38:05.533Z,100664.30
2022-07-29T20:40:38.671Z,100663.25
2022-07-29T20:43:10.451Z,100663.28
2022-07-29T20:45:42.617Z,100661.95
2022-07-29T20:48:14.700Z,100664.88
2022-07-29T20:50:48.566Z,100666.45
2022-07-29T20:53:20.906Z,100658.09
2022-07-29T20:55:52.630Z,100660.02
2022-07-29T20:58:24.362Z,100662.15
2022-07-29T21:00:56.463Z,100662.86
2022-07-29T21:03:28.506Z,100661.74
2022-07-29T21:06:00.621Z,100663.79
2022-07-29T21:08:32.767Z,100663.80
2022-07-29T21:11:05.071Z,100664.91
2022-07-29T21:13:39.940Z,100673.04
2022-07-29T21:16:14.838Z,100675.05
2022-07-29T21:18:47.943Z,100675.73
2022-07-29T21:21:19.826Z,100677.70
2022-07-29T21:23:52.667Z,100684.48
2022-07-29T21:26:24.551Z,100687.48
2022-07-29T21:28:56.262Z,100687.29
2022-07-29T21:31:28.349Z,100698.20
2022-07-29T21:34:00.184Z,100697.41
2022-07-29T21:36:48.791Z,100698.68
2022-07-29T21:39:21.424Z,100696.54
2022-07-29T21:41:53.560Z,100696.11
2022-07-29T21:44:25.226Z,100691.70
2022-07-29T21:46:57.274Z,100692.55
2022-07-29T21:49:29.418Z,100692.33
2022-07-29T21:52:01.149Z,100694.95
2022-07-29T21:54:33.602Z,100692.80
2022-07-29T21:57:05.620Z,100688.95
2022-07-29T21:59:37.624Z,100686.42
2022-07-29T22:02:11.113Z,100684.58
2022-07-29T22:04:42.914Z,100686.83
2022-07-29T22:07:15.034Z,100684.41
2022-07-29T22:09:46.957Z,100678.69
2022-07-29T22:12:18.968Z,100680.89
2022-07-29T22:14:50.673Z,100682.27
2022-07-29T22:17:23.430Z,100686.27
2022-07-29T22:19:55.605Z,100687.59
2022-07-29T22:22:27.439Z,100690.11
2022-07-29T22:24:59.440Z,100687.67
2022-07-29T22:27:31.275Z,100692.90
2022-07-29T22:30:03.996Z,100690.98
2022-07-29T22:32:36.161Z,100690.11
2022-07-29T22:35:09.066Z,100683.73
2022-07-29T22:37:40.860Z,100681.54
2022-07-29T22:40:13.707Z,100681.23
2022-07-29T22:42:46.176Z,100678.94
2022-07-29T22:45:17.870Z,100677.59
2022-07-29T22:47:58.934Z,100681.88
2022-07-29T22:50:31.313Z,100681.04
2022-07-29T22:53:03.103Z,100683.48
2022-07-29T22:55:34.859Z,100679.66
2022-07-29T22:58:06.647Z,100678.51
2022-07-29T23:00:38.767Z,100678.45
2022-07-29T23:03:10.437Z,100674.70
2022-07-29T23:05:42.149Z,100669.18
2022-07-29T23:08:14.046Z,100670.22
2022-07-29T23:10:46.373Z,100665.45
2022-07-29T23:13:18.698Z,100665.32
2022-07-29T23:15:50.377Z,100662.98
2022-07-29T23:18:22.097Z,100660.38
2022-07-29T23:20:54.119Z,100655.55
2022-07-29T23:23:25.878Z,100646.25
2022-07-29T23:26:04.150Z,100640.33
2022-07-29T23:28:35.867Z,100635.38
2022-07-29T23:31:07.531Z,100628.65
2022-07-29T23:33:39.323Z,100630.67
2022-07-29T23:36:11.079Z,100630.89
2022-07-29T23:38:42.990Z,100631.30
2022-07-29T23:41:15.553Z,100626.59
2022-07-29T23:43:46.810Z,100619.23
2022-07-29T23:46:18.752Z,100612.67
2022-07-29T23:48:55.787Z,100611.98
2022-07-29T23:51:29.271Z,100612.09
2022-07-29T23:54:01.216Z,100614.23
2022-07-29T23:56:33.053Z,100615.89
2022-07-29T23:59:06.008Z,100614.33
